Henefer, Utah
Current Conditions -  °F | °C
As of 7:58 AM on Thursday 25 Dec 2014 (Local Time) from KHIF Reporting Station
Light Snow Light Snow  
Wind Chill: 20°   Ceiling: 2700
Heat Index: 28°   Visibility: 8mi
Dew Point: 25°   Wind: 7mph
Humidity: 89%   Direction: 140°SE
Pressure: 29.56"   Gusts: NA
Location:  41.02°N, 111.5°W
Report Text: KHIF 251458Z AUTO 14006KT 8SM -SN FEW019 OVC027 M02/M04 A2956 RMK AO2 SNB41 SLP011 P0000 60002 T10251041 52017
Loading
Personal Weather Stations






























Interactive Weather Map New forecast layout! Learn more

10-Day Weather Forecast

Advertisements
Track Severe Weather on mobile